sensor_id;sensor_type;location;lat;lon;timestamp;pressure;altitude;pressure_sealevel;temperature
71630;BMP280;59479;51.902;8.212;2024-03-08T00:02:23;101425.16;;;5.90
71630;BMP280;59479;51.902;8.212;2024-03-08T00:04:48;101423.38;;;5.86
71630;BMP280;59479;51.902;8.212;2024-03-08T00:07:13;101413.28;;;5.84
71630;BMP280;59479;51.902;8.212;2024-03-08T00:09:39;101415.00;;;5.85
71630;BMP280;59479;51.902;8.212;2024-03-08T00:12:05;101416.41;;;5.77
71630;BMP280;59479;51.902;8.212;2024-03-08T00:14:31;101405.66;;;5.79
71630;BMP280;59479;51.902;8.212;2024-03-08T00:16:56;101409.84;;;5.80
71630;BMP280;59479;51.902;8.212;2024-03-08T00:19:21;101413.66;;;5.69
71630;BMP280;59479;51.902;8.212;2024-03-08T00:21:47;101418.72;;;5.72
71630;BMP280;59479;51.902;8.212;2024-03-08T00:24:12;101412.00;;;5.70
71630;BMP280;59479;51.902;8.212;2024-03-08T00:26:38;101415.22;;;5.67
71630;BMP280;59479;51.902;8.212;2024-03-08T00:29:03;101406.84;;;5.65
71630;BMP280;59479;51.902;8.212;2024-03-08T00:31:29;101412.88;;;5.72
71630;BMP280;59479;51.902;8.212;2024-03-08T00:33:56;101404.63;;;5.73
71630;BMP280;59479;51.902;8.212;2024-03-08T00:36:22;101408.47;;;5.63
71630;BMP280;59479;51.902;8.212;2024-03-08T00:38:48;101408.66;;;5.69
71630;BMP280;59479;51.902;8.212;2024-03-08T00:41:13;101400.31;;;5.69
71630;BMP280;59479;51.902;8.212;2024-03-08T00:43:38;101394.44;;;5.67
71630;BMP280;59479;51.902;8.212;2024-03-08T00:46:04;101405.19;;;5.64
71630;BMP280;59479;51.902;8.212;2024-03-08T00:48:29;101401.47;;;5.53
71630;BMP280;59479;51.902;8.212;2024-03-08T00:50:56;101390.72;;;5.54
71630;BMP280;59479;51.902;8.212;2024-03-08T00:53:21;101390.84;;;5.59
71630;BMP280;59479;51.902;8.212;2024-03-08T00:55:47;101395.78;;;5.57
71630;BMP280;59479;51.902;8.212;2024-03-08T00:58:13;101383.56;;;5.65
71630;BMP280;59479;51.902;8.212;2024-03-08T01:00:38;101386.00;;;5.63
71630;BMP280;59479;51.902;8.212;2024-03-08T01:03:06;101378.16;;;5.51
71630;BMP280;59479;51.902;8.212;2024-03-08T01:05:32;101378.28;;;5.56
71630;BMP280;59479;51.902;8.212;2024-03-08T01:07:57;101372.41;;;5.54
71630;BMP280;59479;51.902;8.212;2024-03-08T01:10:23;101368.19;;;5.51
71630;BMP280;59479;51.902;8.212;2024-03-08T01:12:48;101365.63;;;5.50
71630;BMP280;59479;51.902;8.212;2024-03-08T01:15:15;101363.94;;;5.49
71630;BMP280;59479;51.902;8.212;2024-03-08T01:17:40;101366.28;;;5.44
71630;BMP280;59479;51.902;8.212;2024-03-08T01:20:07;101362.88;;;5.42
71630;BMP280;59479;51.902;8.212;2024-03-08T01:22:36;101361.91;;;5.38
71630;BMP280;59479;51.902;8.212;2024-03-08T01:25:01;101356.78;;;5.33
71630;BMP280;59479;51.902;8.212;2024-03-08T01:27:28;101353.69;;;5.40
71630;BMP280;59479;51.902;8.212;2024-03-08T01:29:53;101345.41;;;5.41
71630;BMP280;59479;51.902;8.212;2024-03-08T01:32:19;101345.31;;;5.38
71630;BMP280;59479;51.902;8.212;2024-03-08T01:34:44;101341.97;;;5.38
71630;BMP280;59479;51.902;8.212;2024-03-08T01:37:10;101339.44;;;5.36
71630;BMP280;59479;51.902;8.212;2024-03-08T01:39:35;101331.63;;;5.27
71630;BMP280;59479;51.902;8.212;2024-03-08T01:42:01;101325.97;;;5.31
71630;BMP280;59479;51.902;8.212;2024-03-08T01:44:26;101326.81;;;5.32
71630;BMP280;59479;51.902;8.212;2024-03-08T01:46:52;101319.34;;;5.32
71630;BMP280;59479;51.902;8.212;2024-03-08T01:49:19;101320.72;;;5.24
71630;BMP280;59479;51.902;8.212;2024-03-08T01:51:46;101314.16;;;5.26
71630;BMP280;59479;51.902;8.212;2024-03-08T01:54:12;101313.31;;;5.25
71630;BMP280;59479;51.902;8.212;2024-03-08T01:56:39;101314.91;;;5.23
71630;BMP280;59479;51.902;8.212;2024-03-08T01:59:05;101312.81;;;5.10
71630;BMP280;59479;51.902;8.212;2024-03-08T02:01:33;101301.47;;;5.18
71630;BMP280;59479;51.902;8.212;2024-03-08T02:03:58;101305.50;;;5.15
71630;BMP280;59479;51.902;8.212;2024-03-08T02:06:24;101307.38;;;5.22
71630;BMP280;59479;51.902;8.212;2024-03-08T02:08:49;101301.47;;;5.18
71630;BMP280;59479;51.902;8.212;2024-03-08T02:11:14;101308.66;;;5.09
71630;BMP280;59479;51.902;8.212;2024-03-08T02:13:41;101298.88;;;5.15
71630;BMP280;59479;51.902;8.212;2024-03-08T02:16:07;101294.59;;;5.11
71630;BMP280;59479;51.902;8.212;2024-03-08T02:18:33;101297.19;;;5.14
71630;BMP280;59479;51.902;8.212;2024-03-08T02:21:01;101291.34;;;5.14
71630;BMP280;59479;51.902;8.212;2024-03-08T02:23:27;101291.22;;;5.09
71630;BMP280;59479;51.902;8.212;2024-03-08T02:25:54;101289.50;;;5.08
71630;BMP280;59479;51.902;8.212;2024-03-08T02:28:20;101288.47;;;5.02
71630;BMP280;59479;51.902;8.212;2024-03-08T02:30:47;101286.84;;;5.04
71630;BMP280;59479;51.902;8.212;2024-03-08T02:33:16;101280.38;;;5.09
71630;BMP280;59479;51.902;8.212;2024-03-08T02:35:42;101280.94;;;5.00
71630;BMP280;59479;51.902;8.212;2024-03-08T02:38:11;101273.56;;;5.03
71630;BMP280;59479;51.902;8.212;2024-03-08T02:40:36;101280.16;;;5.01
71630;BMP280;59479;51.902;8.212;2024-03-08T02:43:02;101274.16;;;4.97
71630;BMP280;59479;51.902;8.212;2024-03-08T02:45:30;101270.91;;;4.99
71630;BMP280;59479;51.902;8.212;2024-03-08T02:47:55;101272.22;;;4.88
71630;BMP280;59479;51.902;8.212;2024-03-08T02:50:21;101276.31;;;4.86
71630;BMP280;59479;51.902;8.212;2024-03-08T02:52:48;101273.84;;;4.86
71630;BMP280;59479;51.902;8.212;2024-03-08T02:55:13;101272.13;;;4.85
71630;BMP280;59479;51.902;8.212;2024-03-08T02:57:42;101258.88;;;4.86
71630;BMP280;59479;51.902;8.212;2024-03-08T03:00:08;101263.94;;;4.88
71630;BMP280;59479;51.902;8.212;2024-03-08T03:02:36;101263.06;;;4.87
71630;BMP280;59479;51.902;8.212;2024-03-08T03:05:03;101254.84;;;4.90
71630;BMP280;59479;51.902;8.212;2024-03-08T03:07:32;101257.41;;;4.91
71630;BMP280;59479;51.902;8.212;2024-03-08T03:09:58;101259.13;;;4.94
71630;BMP280;59479;51.902;8.212;2024-03-08T03:12:23;101259.88;;;4.91
71630;BMP280;59479;51.902;8.212;2024-03-08T03:14:49;101249.94;;;4.93
71630;BMP280;59479;51.902;8.212;2024-03-08T03:17:14;101243.28;;;4.92
71630;BMP280;59479;51.902;8.212;2024-03-08T03:19:42;101239.03;;;4.88
71630;BMP280;59479;51.902;8.212;2024-03-08T03:22:08;101240.69;;;4.89
71630;BMP280;59479;51.902;8.212;2024-03-08T03:24:35;101237.53;;;4.94
71630;BMP280;59479;51.902;8.212;2024-03-08T03:27:03;101239.41;;;5.00
71630;BMP280;59479;51.902;8.212;2024-03-08T03:29:36;101244.28;;;4.97
71630;BMP280;59479;51.902;8.212;2024-03-08T03:32:01;101242.34;;;4.88
71630;BMP280;59479;51.902;8.212;2024-03-08T03:34:28;101236.66;;;4.92
71630;BMP280;59479;51.902;8.212;2024-03-08T03:36:54;101235.88;;;4.93
71630;BMP280;59479;51.902;8.212;2024-03-08T03:39:22;101226.75;;;4.94
71630;BMP280;59479;51.902;8.212;2024-03-08T03:41:48;101227.44;;;4.90
71630;BMP280;59479;51.902;8.212;2024-03-08T03:44:16;101228.22;;;4.89
71630;BMP280;59479;51.902;8.212;2024-03-08T03:46:42;101222.38;;;4.87
71630;BMP280;59479;51.902;8.212;2024-03-08T03:49:10;101219.94;;;4.88
71630;BMP280;59479;51.902;8.212;2024-03-08T03:51:36;101217.19;;;4.81
71630;BMP280;59479;51.902;8.212;2024-03-08T03:54:01;101208.13;;;4.83
71630;BMP280;59479;51.902;8.212;2024-03-08T03:56:29;101218.88;;;4.82
71630;BMP280;59479;51.902;8.212;2024-03-08T03:58:54;101210.63;;;4.83
71630;BMP280;59479;51.902;8.212;2024-03-08T04:01:19;101214.09;;;4.88
71630;BMP280;59479;51.902;8.212;2024-03-08T04:03:45;101200.78;;;4.87
71630;BMP280;59479;51.902;8.212;2024-03-08T04:06:10;101211.34;;;4.80
71630;BMP280;59479;51.902;8.212;2024-03-08T04:08:35;101205.34;;;4.74
71630;BMP280;59479;51.902;8.212;2024-03-08T04:11:01;101203.84;;;4.79
71630;BMP280;59479;51.902;8.212;2024-03-08T04:13:26;101198.13;;;4.81
71630;BMP280;59479;51.902;8.212;2024-03-08T04:15:52;101197.91;;;4.75
71630;BMP280;59479;51.902;8.212;2024-03-08T04:18:18;101202.00;;;4.73
71630;BMP280;59479;51.902;8.212;2024-03-08T04:20:44;101186.28;;;4.74
71630;BMP280;59479;51.902;8.212;2024-03-08T04:23:09;101186.13;;;4.70
71630;BMP280;59479;51.902;8.212;2024-03-08T04:25:35;101181.94;;;4.69
71630;BMP280;59479;51.902;8.212;2024-03-08T04:28:00;101179.22;;;4.61
71630;BMP280;59479;51.902;8.212;2024-03-08T04:30:25;101181.53;;;4.57
71630;BMP280;59479;51.902;8.212;2024-03-08T04:32:53;101182.16;;;4.50
71630;BMP280;59479;51.902;8.212;2024-03-08T04:35:18;101179.75;;;4.53
71630;BMP280;59479;51.902;8.212;2024-03-08T04:37:45;101173.91;;;4.51
71630;BMP280;59479;51.902;8.212;2024-03-08T04:40:11;101170.59;;;4.52
71630;BMP280;59479;51.902;8.212;2024-03-08T04:42:37;101172.91;;;4.46
71630;BMP280;59479;51.902;8.212;2024-03-08T04:45:03;101166.88;;;4.40
71630;BMP280;59479;51.902;8.212;2024-03-08T04:47:29;101167.75;;;4.42
71630;BMP280;59479;51.902;8.212;2024-03-08T04:49:55;101164.50;;;4.44
71630;BMP280;59479;51.902;8.212;2024-03-08T04:52:21;101168.47;;;4.38
71630;BMP280;59479;51.902;8.212;2024-03-08T04:54:47;101167.72;;;4.40
71630;BMP280;59479;51.902;8.212;2024-03-08T04:57:12;101167.66;;;4.39
71630;BMP280;59479;51.902;8.212;2024-03-08T04:59:38;101165.22;;;4.40
71630;BMP280;59479;51.902;8.212;2024-03-08T05:02:03;101166.88;;;4.40
71630;BMP280;59479;51.902;8.212;2024-03-08T05:04:29;101161.94;;;4.41
71630;BMP280;59479;51.902;8.212;2024-03-08T05:06:55;101153.63;;;4.41
71630;BMP280;59479;51.902;8.212;2024-03-08T05:09:20;101155.75;;;4.30
71630;BMP280;59479;51.902;8.212;2024-03-08T05:11:46;101161.84;;;4.38
71630;BMP280;59479;51.902;8.212;2024-03-08T05:14:13;101146.81;;;4.35
71630;BMP280;59479;51.902;8.212;2024-03-08T05:16:44;101152.50;;;4.31
71630;BMP280;59479;51.902;8.212;2024-03-08T05:19:20;101144.09;;;4.28
71630;BMP280;59479;51.902;8.212;2024-03-08T05:21:46;101145.69;;;4.27
71630;BMP280;59479;51.902;8.212;2024-03-08T05:24:12;101142.31;;;4.25
71630;BMP280;59479;51.902;8.212;2024-03-08T05:26:39;101147.31;;;4.25
71630;BMP280;59479;51.902;8.212;2024-03-08T05:29:04;101140.53;;;4.21
71630;BMP280;59479;51.902;8.212;2024-03-08T05:31:37;101147.91;;;4.18
71630;BMP280;59479;51.902;8.212;2024-03-08T05:34:03;101149.50;;;4.17
71630;BMP280;59479;51.902;8.212;2024-03-08T05:36:29;101143.81;;;4.20
71630;BMP280;59479;51.902;8.212;2024-03-08T05:38:55;101142.09;;;4.18
71630;BMP280;59479;51.902;8.212;2024-03-08T05:41:20;101142.16;;;4.21
71630;BMP280;59479;51.902;8.212;2024-03-08T05:43:45;101140.31;;;4.16
71630;BMP280;59479;51.902;8.212;2024-03-08T05:46:11;101137.91;;;4.17
71630;BMP280;59479;51.902;8.212;2024-03-08T05:48:37;101145.47;;;4.20
71630;BMP280;59479;51.902;8.212;2024-03-08T05:51:03;101143.63;;;4.15
71630;BMP280;59479;51.902;8.212;2024-03-08T05:53:28;101145.41;;;4.18
71630;BMP280;59479;51.902;8.212;2024-03-08T05:55:57;101149.50;;;4.17
71630;BMP280;59479;51.902;8.212;2024-03-08T05:58:22;101144.66;;;4.21
71630;BMP280;59479;51.902;8.212;2024-03-08T06:00:48;101143.72;;;4.17
71630;BMP280;59479;51.902;8.212;2024-03-08T06:03:13;101145.53;;;4.21
71630;BMP280;59479;51.902;8.212;2024-03-08T06:05:38;101139.66;;;4.19
71630;BMP280;59479;51.902;8.212;2024-03-08T06:08:07;101151.28;;;4.20
71630;BMP280;59479;51.902;8.212;2024-03-08T06:10:33;101145.41;;;4.18
71630;BMP280;59479;51.902;8.212;2024-03-08T06:12:58;101150.16;;;4.13
71630;BMP280;59479;51.902;8.212;2024-03-08T06:15:25;101147.00;;;4.17
71630;BMP280;59479;51.902;8.212;2024-03-08T06:17:50;101141.44;;;4.23
71630;BMP280;59479;51.902;8.212;2024-03-08T06:20:17;101148.59;;;4.15
71630;BMP280;59479;51.902;8.212;2024-03-08T06:22:43;101147.13;;;4.19
71630;BMP280;59479;51.902;8.212;2024-03-08T06:25:11;101146.69;;;4.08
71630;BMP280;59479;51.902;8.212;2024-03-08T06:27:40;101148.50;;;4.12
71630;BMP280;59479;51.902;8.212;2024-03-08T06:30:08;101144.47;;;4.15
71630;BMP280;59479;51.902;8.212;2024-03-08T06:32:35;101149.34;;;4.12
71630;BMP280;59479;51.902;8.212;2024-03-08T06:35:01;101156.00;;;4.13
71630;BMP280;59479;51.902;8.212;2024-03-08T06:37:27;101145.19;;;4.13
71630;BMP280;59479;51.902;8.212;2024-03-08T06:39:53;101142.09;;;4.18
71630;BMP280;59479;51.902;8.212;2024-03-08T06:42:20;101137.16;;;4.19
71630;BMP280;59479;51.902;8.212;2024-03-08T06:44:45;101133.88;;;4.20
71630;BMP280;59479;51.902;8.212;2024-03-08T06:47:15;101127.41;;;4.25
71630;BMP280;59479;51.902;8.212;2024-03-08T06:49:44;101130.59;;;4.21
71630;BMP280;59479;51.902;8.212;2024-03-08T06:52:10;101129.72;;;4.21
71630;BMP280;59479;51.902;8.212;2024-03-08T06:54:36;101137.06;;;4.17
71630;BMP280;59479;51.902;8.212;2024-03-08T06:57:03;101137.13;;;4.18
71630;BMP280;59479;51.902;8.212;2024-03-08T06:59:28;101137.06;;;4.17
71630;BMP280;59479;51.902;8.212;2024-03-08T07:01:54;101141.88;;;4.12
71630;BMP280;59479;51.902;8.212;2024-03-08T07:04:19;101140.31;;;4.16
71630;BMP280;59479;51.902;8.212;2024-03-08T07:06:47;101140.81;;;4.06
71630;BMP280;59479;51.902;8.212;2024-03-08T07:09:15;101142.03;;;4.17
71630;BMP280;59479;51.902;8.212;2024-03-08T07:11:42;101141.16;;;4.16
71630;BMP280;59479;51.902;8.212;2024-03-08T07:14:07;101131.75;;;4.06
71630;BMP280;59479;51.902;8.212;2024-03-08T07:16:34;101142.47;;;4.05
71630;BMP280;59479;51.902;8.212;2024-03-08T07:19:01;101141.03;;;4.12
71630;BMP280;59479;51.902;8.212;2024-03-08T07:21:26;101131.19;;;4.15
71630;BMP280;59479;51.902;8.212;2024-03-08T07:23:52;101137.78;;;4.14
71630;BMP280;59479;51.902;8.212;2024-03-08T07:26:34;101129.50;;;4.14
71630;BMP280;59479;51.902;8.212;2024-03-08T07:29:00;101128.72;;;4.16
71630;BMP280;59479;51.902;8.212;2024-03-08T07:31:26;101133.69;;;4.15
71630;BMP280;59479;51.902;8.212;2024-03-08T07:33:51;101135.06;;;4.07
71630;BMP280;59479;51.902;8.212;2024-03-08T07:36:18;101140.03;;;4.07
71630;BMP280;59479;51.902;8.212;2024-03-08T07:38:44;101130.63;;;3.98
71630;BMP280;59479;51.902;8.212;2024-03-08T07:41:12;101130.69;;;4.00
71630;BMP280;59479;51.902;8.212;2024-03-08T07:43:38;101131.63;;;4.03
71630;BMP280;59479;51.902;8.212;2024-03-08T07:46:03;101127.59;;;4.07
71630;BMP280;59479;51.902;8.212;2024-03-08T07:48:28;101124.50;;;4.14
71630;BMP280;59479;51.902;8.212;2024-03-08T07:50:54;101117.00;;;4.12
71630;BMP280;59479;51.902;8.212;2024-03-08T07:53:19;101116.41;;;4.19
71630;BMP280;59479;51.902;8.212;2024-03-08T07:55:44;101112.56;;;4.28
71630;BMP280;59479;51.902;8.212;2024-03-08T07:58:10;101112.75;;;4.34
71630;BMP280;59479;51.902;8.212;2024-03-08T08:00:36;101126.91;;;4.35
71630;BMP280;59479;51.902;8.212;2024-03-08T08:03:02;101120.19;;;4.33
71630;BMP280;59479;51.902;8.212;2024-03-08T08:05:27;101109.59;;;4.38
71630;BMP280;59479;51.902;8.212;2024-03-08T08:07:53;101115.44;;;4.40
71630;BMP280;59479;51.902;8.212;2024-03-08T08:10:18;101112.31;;;4.46
71630;BMP280;59479;51.902;8.212;2024-03-08T08:12:47;101121.66;;;4.53
71630;BMP280;59479;51.902;8.212;2024-03-08T08:15:13;101118.22;;;4.49
71630;BMP280;59479;51.902;8.212;2024-03-08T08:17:43;101105.97;;;4.55
71630;BMP280;59479;51.902;8.212;2024-03-08T08:20:10;101112.66;;;4.56
71630;BMP280;59479;51.902;8.212;2024-03-08T08:22:38;101109.72;;;4.69
71630;BMP280;59479;51.902;8.212;2024-03-08T08:25:04;101104.81;;;4.70
71630;BMP280;59479;51.902;8.212;2024-03-08T08:27:29;101101.38;;;4.67
71630;BMP280;59479;51.902;8.212;2024-03-08T08:29:55;101100.91;;;4.78
71630;BMP280;59479;51.902;8.212;2024-03-08T08:32:21;101092.66;;;4.81
71630;BMP280;59479;51.902;8.212;2024-03-08T08:34:46;101095.94;;;4.78
71630;BMP280;59479;51.902;8.212;2024-03-08T08:37:12;101095.97;;;4.80
71630;BMP280;59479;51.902;8.212;2024-03-08T08:39:37;101078.75;;;4.87
71630;BMP280;59479;51.902;8.212;2024-03-08T08:42:03;101074.72;;;4.91
71630;BMP280;59479;51.902;8.212;2024-03-08T08:44:29;101071.03;;;5.06
71630;BMP280;59479;51.902;8.212;2024-03-08T08:46:56;101073.53;;;5.06
71630;BMP280;59479;51.902;8.212;2024-03-08T08:49:23;101075.19;;;5.07
71630;BMP280;59479;51.902;8.212;2024-03-08T08:51:52;101070.16;;;5.05
71630;BMP280;59479;51.902;8.212;2024-03-08T08:54:18;101070.50;;;5.17
71630;BMP280;59479;51.902;8.212;2024-03-08T08:56:44;101067.38;;;5.24
71630;BMP280;59479;51.902;8.212;2024-03-08T08:59:09;101064.28;;;5.31
71630;BMP280;59479;51.902;8.212;2024-03-08T09:01:35;101053.50;;;5.32
71630;BMP280;59479;51.902;8.212;2024-03-08T09:04:00;101047.72;;;5.33
71630;BMP280;59479;51.902;8.212;2024-03-08T09:06:25;101050.41;;;5.41
71630;BMP280;59479;51.902;8.212;2024-03-08T09:08:51;101044.59;;;5.40
71630;BMP280;59479;51.902;8.212;2024-03-08T09:11:16;101035.75;;;5.51
71630;BMP280;59479;51.902;8.212;2024-03-08T09:13:44;101029.16;;;5.53
71630;BMP280;59479;51.902;8.212;2024-03-08T09:16:11;101029.22;;;5.56
71630;BMP280;59479;51.902;8.212;2024-03-08T09:18:36;101023.44;;;5.57
71630;BMP280;59479;51.902;8.212;2024-03-08T09:21:01;101027.84;;;5.67
71630;BMP280;59479;51.902;8.212;2024-03-08T09:23:28;101019.75;;;5.74
71630;BMP280;59479;51.902;8.212;2024-03-08T09:25:58;101013.09;;;5.74
71630;BMP280;59479;51.902;8.212;2024-03-08T09:28:24;101015.03;;;5.84
71630;BMP280;59479;51.902;8.212;2024-03-08T09:30:50;101009.19;;;5.84
71630;BMP280;59479;51.902;8.212;2024-03-08T09:33:15;101012.69;;;5.90
71630;BMP280;59479;51.902;8.212;2024-03-08T09:35:47;101010.31;;;5.94
71630;BMP280;59479;51.902;8.212;2024-03-08T09:38:13;101002.25;;;6.04
71630;BMP280;59479;51.902;8.212;2024-03-08T09:40:43;101006.66;;;6.14
71630;BMP280;59479;51.902;8.212;2024-03-08T09:43:12;100990.09;;;6.19
71630;BMP280;59479;51.902;8.212;2024-03-08T09:45:38;100996.03;;;6.24
71630;BMP280;59479;51.902;8.212;2024-03-08T09:48:10;100986.16;;;6.28
71630;BMP280;59479;51.902;8.212;2024-03-08T09:50:37;100982.19;;;6.36
71630;BMP280;59479;51.902;8.212;2024-03-08T09:53:03;100975.50;;;6.35
71630;BMP280;59479;51.902;8.212;2024-03-08T09:55:29;100970.69;;;6.43
71630;BMP280;59479;51.902;8.212;2024-03-08T09:58:00;100977.63;;;6.56
71630;BMP280;59479;51.902;8.212;2024-03-08T10:00:44;100960.97;;;6.55
71630;BMP280;59479;51.902;8.212;2024-03-08T10:03:10;100949.53;;;6.66
71630;BMP280;59479;51.902;8.212;2024-03-08T10:05:36;100951.22;;;6.67
71630;BMP280;59479;51.902;8.212;2024-03-08T10:08:02;100954.59;;;6.68
71630;BMP280;59479;51.902;8.212;2024-03-08T10:10:27;100948.91;;;6.75
71630;BMP280;59479;51.902;8.212;2024-03-08T10:12:53;100941.56;;;6.83
71630;BMP280;59479;51.902;8.212;2024-03-08T10:15:18;100934.91;;;6.83
71630;BMP280;59479;51.902;8.212;2024-03-08T10:17:45;100936.72;;;6.90
71630;BMP280;59479;51.902;8.212;2024-03-08T10:20:17;100925.09;;;6.92
71630;BMP280;59479;51.902;8.212;2024-03-08T10:22:43;100928.47;;;6.94
71630;BMP280;59479;51.902;8.212;2024-03-08T10:25:12;100921.94;;;7.02
71630;BMP280;59479;51.902;8.212;2024-03-08T10:27:41;100922.00;;;7.05
71630;BMP280;59479;51.902;8.212;2024-03-08T10:30:12;100917.00;;;7.05
71630;BMP280;59479;51.902;8.212;2024-03-08T10:32:39;100911.41;;;7.16
71630;BMP280;59479;51.902;8.212;2024-03-08T10:35:07;100908.97;;;7.19
71630;BMP280;59479;51.902;8.212;2024-03-08T10:37:47;100904.00;;;7.21
71630;BMP280;59479;51.902;8.212;2024-03-08T10:40:17;100908.28;;;7.28
71630;BMP280;59479;51.902;8.212;2024-03-08T10:45:39;100901.84;;;7.42
71630;BMP280;59479;51.902;8.212;2024-03-08T10:48:29;100896.81;;;7.40
71630;BMP280;59479;51.902;8.212;2024-03-08T10:50:59;100890.34;;;7.51
71630;BMP280;59479;51.902;8.212;2024-03-08T10:53:27;100884.47;;;7.51
71630;BMP280;59479;51.902;8.212;2024-03-08T10:55:53;100873.72;;;7.54
71630;BMP280;59479;51.902;8.212;2024-03-08T10:58:23;100873.03;;;7.63
71630;BMP280;59479;51.902;8.212;2024-03-08T11:00:52;100874.00;;;7.74
71630;BMP280;59479;51.902;8.212;2024-03-08T11:08:40;100856.63;;;7.81
71630;BMP280;59479;51.902;8.212;2024-03-08T11:11:23;100854.97;;;7.82
71630;BMP280;59479;51.902;8.212;2024-03-08T11:13:52;100848.28;;;7.82
71630;BMP280;59479;51.902;8.212;2024-03-08T11:16:38;100845.09;;;7.92
71630;BMP280;59479;51.902;8.212;2024-03-08T11:21:36;100846.13;;;8.06
71630;BMP280;59479;51.902;8.212;2024-03-08T11:24:10;100841.13;;;8.06
71630;BMP280;59479;51.902;8.212;2024-03-08T11:26:37;100818.63;;;8.07
71630;BMP280;59479;51.902;8.212;2024-03-08T11:32:12;100823.88;;;8.22
71630;BMP280;59479;51.902;8.212;2024-03-08T11:34:41;100816.34;;;8.22
71630;BMP280;59479;51.902;8.212;2024-03-08T11:37:17;100806.38;;;8.27
71630;BMP280;59479;51.902;8.212;2024-03-08T11:39:55;100798.84;;;8.27
71630;BMP280;59479;51.902;8.212;2024-03-08T11:42:29;100802.25;;;8.32
71630;BMP280;59479;51.902;8.212;2024-03-08T11:44:55;100790.63;;;8.37
71630;BMP280;59479;51.902;8.212;2024-03-08T11:47:22;100797.25;;;8.32
71630;BMP280;59479;51.902;8.212;2024-03-08T11:49:47;100797.38;;;8.43
71630;BMP280;59479;51.902;8.212;2024-03-08T11:52:18;100784.09;;;8.50
71630;BMP280;59479;51.902;8.212;2024-03-08T11:54:53;100785.75;;;8.48
71630;BMP280;59479;51.902;8.212;2024-03-08T11:57:21;100784.13;;;8.53
71630;BMP280;59479;51.902;8.212;2024-03-08T11:59:54;100785.06;;;8.61
71630;BMP280;59479;51.902;8.212;2024-03-08T12:02:20;100767.56;;;8.64
71630;BMP280;59479;51.902;8.212;2024-03-08T12:04:45;100758.44;;;8.69
71630;BMP280;59479;51.902;8.212;2024-03-08T12:07:11;100746.78;;;8.77
71630;BMP280;59479;51.902;8.212;2024-03-08T12:09:42;100755.91;;;8.69
71630;BMP280;59479;51.902;8.212;2024-03-08T12:12:11;100750.16;;;8.78
71630;BMP280;59479;51.902;8.212;2024-03-08T12:14:37;100750.97;;;8.78
71630;BMP280;59479;51.902;8.212;2024-03-08T12:17:04;100734.31;;;8.83
71630;BMP280;59479;51.902;8.212;2024-03-08T12:19:30;100748.50;;;8.79
71630;BMP280;59479;51.902;8.212;2024-03-08T12:21:56;100732.66;;;8.85
71630;BMP280;59479;51.902;8.212;2024-03-08T12:24:21;100730.25;;;8.97
71630;BMP280;59479;51.902;8.212;2024-03-08T12:26:48;100725.25;;;8.97
71630;BMP280;59479;51.902;8.212;2024-03-08T12:29:26;100710.22;;;8.98
71630;BMP280;59479;51.902;8.212;2024-03-08T12:31:59;100706.09;;;9.05
71630;BMP280;59479;51.902;8.212;2024-03-08T12:34:30;100701.91;;;9.07
71630;BMP280;59479;51.902;8.212;2024-03-08T12:36:57;100694.44;;;9.13
71630;BMP280;59479;51.902;8.212;2024-03-08T12:39:23;100695.28;;;9.12
71630;BMP280;59479;51.902;8.212;2024-03-08T12:41:55;100693.63;;;9.12
71630;BMP280;59479;51.902;8.212;2024-03-08T12:44:22;100690.31;;;9.19
71630;BMP280;59479;51.902;8.212;2024-03-08T12:46:48;100687.78;;;9.15
71630;BMP280;59479;51.902;8.212;2024-03-08T12:49:14;100682.72;;;9.12
71630;BMP280;59479;51.902;8.212;2024-03-08T12:51:43;100681.13;;;9.21
71630;BMP280;59479;51.902;8.212;2024-03-08T12:54:09;100671.13;;;9.25
71630;BMP280;59479;51.902;8.212;2024-03-08T12:56:35;100670.31;;;9.31
71630;BMP280;59479;51.902;8.212;2024-03-08T12:59:06;100661.94;;;9.32
71630;BMP280;59479;51.902;8.212;2024-03-08T13:01:32;100656.97;;;9.36
71630;BMP280;59479;51.902;8.212;2024-03-08T13:03:58;100655.31;;;9.34
71630;BMP280;59479;51.902;8.212;2024-03-08T13:06:24;100646.13;;;9.40
71630;BMP280;59479;51.902;8.212;2024-03-08T13:08:52;100649.47;;;9.45
71630;BMP280;59479;51.902;8.212;2024-03-08T13:11:19;100641.13;;;9.46
71630;BMP280;59479;51.902;8.212;2024-03-08T13:13:44;100641.16;;;9.48
71630;BMP280;59479;51.902;8.212;2024-03-08T13:16:10;100636.16;;;9.52
71630;BMP280;59479;51.902;8.212;2024-03-08T13:18:37;100634.50;;;9.54
71630;BMP280;59479;51.902;8.212;2024-03-08T13:21:04;100624.47;;;9.57
71630;BMP280;59479;51.902;8.212;2024-03-08T13:23:41;100626.94;;;9.50
71630;BMP280;59479;51.902;8.212;2024-03-08T13:26:11;100627.75;;;9.44
71630;BMP280;59479;51.902;8.212;2024-03-08T13:28:49;100624.44;;;9.51
71630;BMP280;59479;51.902;8.212;2024-03-08T13:31:19;100623.63;;;9.60
71630;BMP280;59479;51.902;8.212;2024-03-08T13:33:44;100624.47;;;9.60
71630;BMP280;59479;51.902;8.212;2024-03-08T13:36:12;100622.78;;;9.56
71630;BMP280;59479;51.902;8.212;2024-03-08T13:38:45;100611.06;;;9.49
71630;BMP280;59479;51.902;8.212;2024-03-08T13:41:12;100598.56;;;9.61
71630;BMP280;59479;51.902;8.212;2024-03-08T13:43:40;100594.38;;;9.57
71630;BMP280;59479;51.902;8.212;2024-03-08T13:46:06;100586.84;;;9.62
71630;BMP280;59479;51.902;8.212;2024-03-08T13:48:33;100595.22;;;9.69
71630;BMP280;59479;51.902;8.212;2024-03-08T13:50:58;100585.97;;;9.57
71630;BMP280;59479;51.902;8.212;2024-03-08T13:53:25;100578.47;;;9.67
71630;BMP280;59479;51.902;8.212;2024-03-08T13:55:50;100576.84;;;9.70
71630;BMP280;59479;51.902;8.212;2024-03-08T13:58:16;100575.16;;;9.71
71630;BMP280;59479;51.902;8.212;2024-03-08T14:00:41;100558.44;;;9.71
71630;BMP280;59479;51.902;8.212;2024-03-08T14:03:09;100560.94;;;9.76
71630;BMP280;59479;51.902;8.212;2024-03-08T14:08:16;100537.53;;;9.78
71630;BMP280;59479;51.902;8.212;2024-03-08T14:10:42;100528.34;;;9.88
71630;BMP280;59479;51.902;8.212;2024-03-08T14:13:08;100530.84;;;9.85
71630;BMP280;59479;51.902;8.212;2024-03-08T14:15:36;100533.34;;;9.86
71630;BMP280;59479;51.902;8.212;2024-03-08T14:18:04;100531.69;;;9.87
71630;BMP280;59479;51.902;8.212;2024-03-08T14:20:35;100524.19;;;9.93
71630;BMP280;59479;51.902;8.212;2024-03-08T14:23:00;100528.34;;;9.91
71630;BMP280;59479;51.902;8.212;2024-03-08T14:25:25;100516.69;;;9.97